Spaceon02064 — ASD — position and weather

sailwx.info

Track history (hours):
 
Tides and Currents Weather Stations Pressure Air Temp Water Temp Dewpoint Dewpoint Depression Visibility Wind Speed Wind Dir Waves Ship Positions

Spaceon02064

Last reported at 2014-Aug-27 16:31 UTC. Time now 2014-Aug-27 23:18 UTC.
Position N 31°25' E 121°32'.

Length 6 m.

Type: Ship. MMSI: 200902064.

Date/timePositionNaut miles runAvg speedWind from/ knotsBaromVisibWave heightAir tempDewpointWater temp
2014-Aug-27 16:31N 31°25' E 121°32'14 2.3
2014-Aug-27 10:24N 31°19' E 121°46'681114.2
2014-Aug-27 10:21N 32°00' E 120°42'6 7.0
2014-Aug-27 09:33N 31°60' E 120°36'6 5.6
2014-Aug-27 08:28N 32°02' E 120°29'4 3.9
2014-Aug-27 07:33N 31°59' E 120°27'14622.6
2014-Aug-27 01:05N 29°58' E 122°03'5 8.5
2014-Aug-27 00:27N 29°55' E 122°08'7 7.1
2014-Aug-26 23:32N 29°49' E 122°05'9540.0
2014-Aug-26 21:10N 31°22' E 121°43'0 0.0
2014-Aug-26 19:32N 31°22' E 121°43'1 0.1
2014-Aug-26 08:05N 31°22' E 121°42'5 7.6
2014-Aug-26 07:29N 31°22' E 121°37'6 6.7
2014-Aug-26 06:33N 31°25' E 121°30'6 5.6
2014-Aug-26 05:33N 31°29' E 121°26'4271220.6
2014-Aug-26 05:12N 24°47' E 118°46'1 1.6
2014-Aug-26 04:30N 24°48' E 118°47'42417.7
2014-Aug-25 04:33N 31°27' E 121°29'9 7.6
2014-Aug-25 03:20N 31°22' E 121°38'1013.0
2014-Aug-25 02:32N 31°21' E 121°26'0 0.0
2014-Aug-25 01:32N 31°21' E 121°26'6312.3
2014-Aug-24 20:22N 31°59' E 120°27'4 4.9
2014-Aug-24 19:33N 32°02' E 120°29'6 6.2
2014-Aug-24 18:32N 32°00' E 120°37'57 4.1
2014-Aug-24 04:25N 31°26' E 121°30'5 5.8
2014-Aug-24 03:32N 31°21' E 121°32'6 3.0
2014-Aug-24 01:31N 31°15' E 121°30'  
2014-Aug-21 09:33N 31°23' E 121°36'8 7.8
2014-Aug-21 08:32N 31°27' E 121°28'9412.9
2014-Aug-21 01:14N 29°58' E 122°03'96 6.4
2014-Aug-20 10:14N 31°29' E 121°27'4 5.9
2014-Aug-20 09:34N 31°26' E 121°30'6 5.6
2014-Aug-20 08:31N 31°23' E 121°36'10 1.1
2014-Aug-19 23:28N 31°15' E 121°30'6 4.7
2014-Aug-19 22:09N 31°20' E 121°33'3 5.4
2014-Aug-19 21:32N 31°23' E 121°30'7 6.4
2014-Aug-19 20:25N 31°29' E 121°25'42628.6
2014-Aug-19 05:32N 24°47' E 118°46'0 0.0
2014-Aug-19 04:32N 24°47' E 118°46'0 0.0
2014-Aug-19 03:26N 24°47' E 118°46'43887.8
2014-Aug-18 22:27N 31°57' E 120°16'6 5.4
2014-Aug-18 21:25N 31°58' E 120°23'3 0.2
2014-Aug-18 07:28N 31°59' E 120°27'4411741.7
2014-Aug-18 07:13N 24°47' E 118°46'0 0.0
2014-Aug-18 06:31N 24°47' E 118°46'4453815.2
2014-Aug-18 06:24N 32°02' E 120°30'7183.7
2014-Aug-18 05:33N 31°22' E 121°38'661208.2
2014-Aug-18 05:30N 32°01' E 120°34'4452395.9
2014-Aug-18 05:19N 24°47' E 118°46'425551.1
2014-Aug-18 04:33N 31°26' E 121°29'425398.6
2014-Aug-18 03:29N 24°47' E 118°46'0 0.0
2014-Aug-18 02:08N 24°47' E 118°46'0 0.0
2014-Aug-17 17:32N 24°47' E 118°46'  
Track history (hours):
 
Tides and Currents Weather Stations Pressure Air Temp Water Temp Dewpoint Dewpoint Depression Visibility Wind Speed Wind Dir Waves Ship Positions

Spaceon02064

Last reported at 2014-Aug-27 16:31 UTC. Time now 2014-Aug-27 23:18 UTC.
Position N 31°25' E 121°32'.

Length 6 m.

Type: Ship. MMSI: 200902064.

Date/timePositionNaut miles runAvg speedWind from/ knotsBaromVisibWave heightAir tempDewpointWater temp
2014-Aug-27 16:31N 31°25' E 121°32'14 2.3
2014-Aug-27 10:24N 31°19' E 121°46'681114.2
2014-Aug-27 10:21N 32°00' E 120°42'6 7.0
2014-Aug-27 09:33N 31°60' E 120°36'6 5.6
2014-Aug-27 08:28N 32°02' E 120°29'4 3.9
2014-Aug-27 07:33N 31°59' E 120°27'14622.6
2014-Aug-27 01:05N 29°58' E 122°03'5 8.5
2014-Aug-27 00:27N 29°55' E 122°08'7 7.1
2014-Aug-26 23:32N 29°49' E 122°05'9540.0
2014-Aug-26 21:10N 31°22' E 121°43'0 0.0
2014-Aug-26 19:32N 31°22' E 121°43'1 0.1
2014-Aug-26 08:05N 31°22' E 121°42'5 7.6
2014-Aug-26 07:29N 31°22' E 121°37'6 6.7
2014-Aug-26 06:33N 31°25' E 121°30'6 5.6
2014-Aug-26 05:33N 31°29' E 121°26'4271220.6
2014-Aug-26 05:12N 24°47' E 118°46'1 1.6
2014-Aug-26 04:30N 24°48' E 118°47'42417.7
2014-Aug-25 04:33N 31°27' E 121°29'9 7.6
2014-Aug-25 03:20N 31°22' E 121°38'1013.0
2014-Aug-25 02:32N 31°21' E 121°26'0 0.0
2014-Aug-25 01:32N 31°21' E 121°26'6312.3
2014-Aug-24 20:22N 31°59' E 120°27'4 4.9
2014-Aug-24 19:33N 32°02' E 120°29'6 6.2
2014-Aug-24 18:32N 32°00' E 120°37'57 4.1
2014-Aug-24 04:25N 31°26' E 121°30'5 5.8
2014-Aug-24 03:32N 31°21' E 121°32'6 3.0
2014-Aug-24 01:31N 31°15' E 121°30'  
2014-Aug-21 09:33N 31°23' E 121°36'8 7.8
2014-Aug-21 08:32N 31°27' E 121°28'9412.9
2014-Aug-21 01:14N 29°58' E 122°03'96 6.4
2014-Aug-20 10:14N 31°29' E 121°27'4 5.9
2014-Aug-20 09:34N 31°26' E 121°30'6 5.6
2014-Aug-20 08:31N 31°23' E 121°36'10 1.1
2014-Aug-19 23:28N 31°15' E 121°30'6 4.7
2014-Aug-19 22:09N 31°20' E 121°33'3 5.4
2014-Aug-19 21:32N 31°23' E 121°30'7 6.4
2014-Aug-19 20:25N 31°29' E 121°25'42628.6
2014-Aug-19 05:32N 24°47' E 118°46'0 0.0
2014-Aug-19 04:32N 24°47' E 118°46'0 0.0
2014-Aug-19 03:26N 24°47' E 118°46'43887.8
2014-Aug-18 22:27N 31°57' E 120°16'6 5.4
2014-Aug-18 21:25N 31°58' E 120°23'3 0.2
2014-Aug-18 07:28N 31°59' E 120°27'4411741.7
2014-Aug-18 07:13N 24°47' E 118°46'0 0.0
2014-Aug-18 06:31N 24°47' E 118°46'4453815.2
2014-Aug-18 06:24N 32°02' E 120°30'7183.7
2014-Aug-18 05:33N 31°22' E 121°38'661208.2
2014-Aug-18 05:30N 32°01' E 120°34'4452395.9
2014-Aug-18 05:19N 24°47' E 118°46'425551.1
2014-Aug-18 04:33N 31°26' E 121°29'425398.6
2014-Aug-18 03:29N 24°47' E 118°46'0 0.0
2014-Aug-18 02:08N 24°47' E 118°46'0 0.0
2014-Aug-17 17:32N 24°47' E 118°46'  

Dump ship's entire track history